sensor_id;sensor_type;location;lat;lon;timestamp;P1;durP1;ratioP1;P2;durP2;ratioP2
12776;SDS011;6452;41.572;23.732;2023-09-19T00:00:24;5.05;;;4.55;;
12776;SDS011;6452;41.572;23.732;2023-09-19T00:02:56;4.70;;;4.40;;
12776;SDS011;6452;41.572;23.732;2023-09-19T00:05:25;4.68;;;4.35;;
12776;SDS011;6452;41.572;23.732;2023-09-19T00:07:53;4.45;;;4.15;;
12776;SDS011;6452;41.572;23.732;2023-09-19T00:10:22;4.80;;;4.50;;
12776;SDS011;6452;41.572;23.732;2023-09-19T00:12:50;5.63;;;4.30;;
12776;SDS011;6452;41.572;23.732;2023-09-19T00:15:20;4.75;;;4.35;;
12776;SDS011;6452;41.572;23.732;2023-09-19T00:18:14;4.85;;;4.53;;
12776;SDS011;6452;41.572;23.732;2023-09-19T00:20:45;4.82;;;4.18;;
12776;SDS011;6452;41.572;23.732;2023-09-19T00:23:14;4.72;;;4.07;;
12776;SDS011;6452;41.572;23.732;2023-09-19T00:25:40;5.45;;;4.82;;
12776;SDS011;6452;41.572;23.732;2023-09-19T00:28:07;4.78;;;4.38;;
12776;SDS011;6452;41.572;23.732;2023-09-19T00:30:34;5.20;;;4.40;;
12776;SDS011;6452;41.572;23.732;2023-09-19T00:33:00;4.97;;;4.55;;
12776;SDS011;6452;41.572;23.732;2023-09-19T00:35:27;4.40;;;4.00;;
12776;SDS011;6452;41.572;23.732;2023-09-19T00:37:53;4.57;;;4.28;;
12776;SDS011;6452;41.572;23.732;2023-09-19T00:40:21;4.15;;;3.85;;
12776;SDS011;6452;41.572;23.732;2023-09-19T00:42:48;5.13;;;4.30;;
12776;SDS011;6452;41.572;23.732;2023-09-19T00:45:15;4.22;;;3.83;;
12776;SDS011;6452;41.572;23.732;2023-09-19T00:47:44;4.57;;;4.22;;
12776;SDS011;6452;41.572;23.732;2023-09-19T00:50:15;5.30;;;4.13;;
12776;SDS011;6452;41.572;23.732;2023-09-19T00:52:42;4.07;;;3.83;;
12776;SDS011;6452;41.572;23.732;2023-09-19T00:55:10;5.78;;;3.83;;
12776;SDS011;6452;41.572;23.732;2023-09-19T00:57:39;4.72;;;4.35;;
12776;SDS011;6452;41.572;23.732;2023-09-19T01:00:06;6.00;;;4.07;;
12776;SDS011;6452;41.572;23.732;2023-09-19T01:02:36;4.80;;;4.40;;
12776;SDS011;6452;41.572;23.732;2023-09-19T01:05:03;4.60;;;4.15;;
12776;SDS011;6452;41.572;23.732;2023-09-19T01:07:31;4.53;;;4.10;;
12776;SDS011;6452;41.572;23.732;2023-09-19T01:09:59;4.90;;;4.45;;
12776;SDS011;6452;41.572;23.732;2023-09-19T01:12:30;5.57;;;5.13;;
12776;SDS011;6452;41.572;23.732;2023-09-19T01:29:13;6.43;;;5.82;;
12776;SDS011;6452;41.572;23.732;2023-09-19T01:32:02;5.88;;;5.28;;
12776;SDS011;6452;41.572;23.732;2023-09-19T01:34:45;6.70;;;4.80;;
12776;SDS011;6452;41.572;23.732;2023-09-19T01:37:16;6.38;;;5.25;;
12776;SDS011;6452;41.572;23.732;2023-09-19T01:39:54;7.00;;;5.18;;
12776;SDS011;6452;41.572;23.732;2023-09-19T01:42:50;4.38;;;3.97;;
12776;SDS011;6452;41.572;23.732;2023-09-19T01:48:57;5.07;;;4.50;;
12776;SDS011;6452;41.572;23.732;2023-09-19T01:51:11;5.07;;;4.40;;
12776;SDS011;6452;41.572;23.732;2023-09-19T01:54:02;5.15;;;4.75;;
12776;SDS011;6452;41.572;23.732;2023-09-19T01:56:47;4.50;;;4.07;;
12776;SDS011;6452;41.572;23.732;2023-09-19T01:59:19;4.65;;;4.22;;
12776;SDS011;6452;41.572;23.732;2023-09-19T02:01:49;4.65;;;4.22;;
12776;SDS011;6452;41.572;23.732;2023-09-19T02:04:18;4.40;;;4.10;;
12776;SDS011;6452;41.572;23.732;2023-09-19T02:06:45;4.47;;;4.07;;
12776;SDS011;6452;41.572;23.732;2023-09-19T02:09:13;4.60;;;4.15;;
12776;SDS011;6452;41.572;23.732;2023-09-19T02:11:40;5.75;;;4.30;;
12776;SDS011;6452;41.572;23.732;2023-09-19T02:14:07;5.30;;;4.18;;
12776;SDS011;6452;41.572;23.732;2023-09-19T02:16:34;6.30;;;4.35;;
12776;SDS011;6452;41.572;23.732;2023-09-19T02:19:00;5.03;;;4.63;;
12776;SDS011;6452;41.572;23.732;2023-09-19T02:21:31;4.50;;;4.10;;
12776;SDS011;6452;41.572;23.732;2023-09-19T02:23:57;5.20;;;4.00;;
12776;SDS011;6452;41.572;23.732;2023-09-19T02:26:24;4.93;;;4.50;;
12776;SDS011;6452;41.572;23.732;2023-09-19T02:28:52;4.35;;;3.95;;
12776;SDS011;6452;41.572;23.732;2023-09-19T02:31:23;4.90;;;4.40;;
12776;SDS011;6452;41.572;23.732;2023-09-19T02:33:50;4.93;;;4.53;;
12776;SDS011;6452;41.572;23.732;2023-09-19T02:36:16;5.40;;;4.55;;
12776;SDS011;6452;41.572;23.732;2023-09-19T02:38:47;4.97;;;4.40;;
12776;SDS011;6452;41.572;23.732;2023-09-19T02:41:14;7.97;;;4.78;;
12776;SDS011;6452;41.572;23.732;2023-09-19T02:43:44;6.63;;;4.00;;
12776;SDS011;6452;41.572;23.732;2023-09-19T02:46:10;4.95;;;4.40;;
12776;SDS011;6452;41.572;23.732;2023-09-19T02:48:38;4.60;;;4.28;;
12776;SDS011;6452;41.572;23.732;2023-09-19T02:51:05;6.45;;;4.53;;
12776;SDS011;6452;41.572;23.732;2023-09-19T02:53:31;5.13;;;4.72;;
12776;SDS011;6452;41.572;23.732;2023-09-19T02:55:58;4.93;;;4.53;;
12776;SDS011;6452;41.572;23.732;2023-09-19T02:58:26;5.50;;;4.45;;
12776;SDS011;6452;41.572;23.732;2023-09-19T03:00:55;9.88;;;4.60;;
12776;SDS011;6452;41.572;23.732;2023-09-19T03:03:23;7.35;;;4.45;;
12776;SDS011;6452;41.572;23.732;2023-09-19T03:05:50;4.65;;;4.28;;
12776;SDS011;6452;41.572;23.732;2023-09-19T03:08:18;5.95;;;4.40;;
12776;SDS011;6452;41.572;23.732;2023-09-19T03:10:48;5.72;;;4.38;;
12776;SDS011;6452;41.572;23.732;2023-09-19T03:13:14;6.35;;;4.90;;
12776;SDS011;6452;41.572;23.732;2023-09-19T03:15:41;8.98;;;5.07;;
12776;SDS011;6452;41.572;23.732;2023-09-19T03:18:11;6.57;;;5.53;;
12776;SDS011;6452;41.572;23.732;2023-09-19T03:20:38;6.72;;;6.00;;
12776;SDS011;6452;41.572;23.732;2023-09-19T03:23:05;6.68;;;5.90;;
12776;SDS011;6452;41.572;23.732;2023-09-19T03:25:33;6.70;;;6.07;;
12776;SDS011;6452;41.572;23.732;2023-09-19T03:28:00;8.05;;;6.38;;
12776;SDS011;6452;41.572;23.732;2023-09-19T03:30:31;7.22;;;6.55;;
12776;SDS011;6452;41.572;23.732;2023-09-19T03:32:59;9.05;;;6.47;;
12776;SDS011;6452;41.572;23.732;2023-09-19T03:35:26;9.60;;;7.25;;
12776;SDS011;6452;41.572;23.732;2023-09-19T03:37:52;8.98;;;7.88;;
12776;SDS011;6452;41.572;23.732;2023-09-19T03:40:19;10.38;;;7.28;;
12776;SDS011;6452;41.572;23.732;2023-09-19T03:42:47;11.60;;;8.05;;
12776;SDS011;6452;41.572;23.732;2023-09-19T03:45:13;8.50;;;7.28;;
12776;SDS011;6452;41.572;23.732;2023-09-19T03:47:41;8.52;;;7.22;;
12776;SDS011;6452;41.572;23.732;2023-09-19T03:50:07;8.73;;;7.45;;
12776;SDS011;6452;41.572;23.732;2023-09-19T03:52:36;7.72;;;6.97;;
12776;SDS011;6452;41.572;23.732;2023-09-19T03:55:02;7.97;;;7.18;;
12776;SDS011;6452;41.572;23.732;2023-09-19T03:57:33;7.93;;;7.15;;
12776;SDS011;6452;41.572;23.732;2023-09-19T04:00:02;7.28;;;6.57;;
12776;SDS011;6452;41.572;23.732;2023-09-19T04:02:30;7.57;;;6.82;;
12776;SDS011;6452;41.572;23.732;2023-09-19T04:04:58;10.18;;;7.15;;
12776;SDS011;6452;41.572;23.732;2023-09-19T04:07:25;8.10;;;6.80;;
12776;SDS011;6452;41.572;23.732;2023-09-19T04:09:54;7.95;;;7.15;;
12776;SDS011;6452;41.572;23.732;2023-09-19T04:12:21;10.13;;;6.93;;
12776;SDS011;6452;41.572;23.732;2023-09-19T04:14:48;8.98;;;6.63;;
12776;SDS011;6452;41.572;23.732;2023-09-19T04:17:15;8.85;;;6.80;;
12776;SDS011;6452;41.572;23.732;2023-09-19T04:19:42;7.57;;;6.78;;
12776;SDS011;6452;41.572;23.732;2023-09-19T04:22:11;9.15;;;7.82;;
12776;SDS011;6452;41.572;23.732;2023-09-19T04:24:38;8.00;;;7.30;;
12776;SDS011;6452;41.572;23.732;2023-09-19T04:27:04;10.20;;;7.45;;
12776;SDS011;6452;41.572;23.732;2023-09-19T04:29:32;10.02;;;7.03;;
12776;SDS011;6452;41.572;23.732;2023-09-19T04:31:59;11.85;;;8.02;;
12776;SDS011;6452;41.572;23.732;2023-09-19T04:34:26;9.82;;;7.60;;
12776;SDS011;6452;41.572;23.732;2023-09-19T04:36:55;12.68;;;7.53;;
12776;SDS011;6452;41.572;23.732;2023-09-19T04:39:23;10.77;;;7.97;;
12776;SDS011;6452;41.572;23.732;2023-09-19T04:41:51;10.13;;;8.18;;
12776;SDS011;6452;41.572;23.732;2023-09-19T04:44:18;12.48;;;7.97;;
12776;SDS011;6452;41.572;23.732;2023-09-19T04:46:46;10.63;;;7.95;;
12776;SDS011;6452;41.572;23.732;2023-09-19T04:49:13;9.43;;;7.97;;
12776;SDS011;6452;41.572;23.732;2023-09-19T04:51:39;9.43;;;8.02;;
12776;SDS011;6452;41.572;23.732;2023-09-19T04:54:06;8.38;;;7.30;;
12776;SDS011;6452;41.572;23.732;2023-09-19T04:56:32;8.23;;;7.43;;
12776;SDS011;6452;41.572;23.732;2023-09-19T04:58:59;7.13;;;6.45;;
12776;SDS011;6452;41.572;23.732;2023-09-19T05:01:26;8.43;;;7.22;;
12776;SDS011;6452;41.572;23.732;2023-09-19T05:03:52;9.77;;;7.38;;
12776;SDS011;6452;41.572;23.732;2023-09-19T05:06:19;9.02;;;7.28;;
12776;SDS011;6452;41.572;23.732;2023-09-19T05:08:49;10.85;;;7.03;;
12776;SDS011;6452;41.572;23.732;2023-09-19T05:11:18;7.20;;;6.30;;
12776;SDS011;6452;41.572;23.732;2023-09-19T05:13:44;7.85;;;6.65;;
12776;SDS011;6452;41.572;23.732;2023-09-19T05:16:11;9.60;;;7.13;;
12776;SDS011;6452;41.572;23.732;2023-09-19T05:18:38;6.72;;;6.05;;
12776;SDS011;6452;41.572;23.732;2023-09-19T05:21:05;7.15;;;5.13;;
12776;SDS011;6452;41.572;23.732;2023-09-19T05:23:31;4.88;;;4.47;;
12776;SDS011;6452;41.572;23.732;2023-09-19T05:26:02;4.78;;;4.32;;
12776;SDS011;6452;41.572;23.732;2023-09-19T05:28:29;9.77;;;7.85;;
12776;SDS011;6452;41.572;23.732;2023-09-19T05:31:00;12.70;;;8.35;;
12776;SDS011;6452;41.572;23.732;2023-09-19T05:33:27;11.38;;;8.15;;
12776;SDS011;6452;41.572;23.732;2023-09-19T05:35:55;10.05;;;8.05;;
12776;SDS011;6452;41.572;23.732;2023-09-19T05:38:21;8.90;;;7.53;;
12776;SDS011;6452;41.572;23.732;2023-09-19T05:40:49;10.48;;;7.47;;
12776;SDS011;6452;41.572;23.732;2023-09-19T05:43:16;7.65;;;6.93;;
12776;SDS011;6452;41.572;23.732;2023-09-19T05:45:42;8.32;;;6.20;;
12776;SDS011;6452;41.572;23.732;2023-09-19T05:48:14;7.78;;;6.40;;
12776;SDS011;6452;41.572;23.732;2023-09-19T05:50:41;8.30;;;6.20;;
12776;SDS011;6452;41.572;23.732;2023-09-19T05:53:08;9.38;;;6.13;;
12776;SDS011;6452;41.572;23.732;2023-09-19T05:55:37;6.60;;;6.00;;
12776;SDS011;6452;41.572;23.732;2023-09-19T05:58:04;7.10;;;5.18;;
12776;SDS011;6452;41.572;23.732;2023-09-19T06:00:31;5.45;;;5.00;;
12776;SDS011;6452;41.572;23.732;2023-09-19T06:02:58;7.68;;;5.80;;
12776;SDS011;6452;41.572;23.732;2023-09-19T06:05:29;6.30;;;5.70;;
12776;SDS011;6452;41.572;23.732;2023-09-19T06:07:58;13.48;;;6.13;;
12776;SDS011;6452;41.572;23.732;2023-09-19T06:10:44;7.82;;;6.30;;
12776;SDS011;6452;41.572;23.732;2023-09-19T06:13:12;6.95;;;6.15;;
12776;SDS011;6452;41.572;23.732;2023-09-19T06:15:39;6.63;;;6.03;;
12776;SDS011;6452;41.572;23.732;2023-09-19T06:18:10;6.50;;;5.78;;
12776;SDS011;6452;41.572;23.732;2023-09-19T06:20:37;9.07;;;5.78;;
12776;SDS011;6452;41.572;23.732;2023-09-19T06:23:09;7.55;;;5.28;;
12776;SDS011;6452;41.572;23.732;2023-09-19T06:25:36;7.95;;;5.75;;
12776;SDS011;6452;41.572;23.732;2023-09-19T06:28:03;5.32;;;4.88;;
12776;SDS011;6452;41.572;23.732;2023-09-19T06:30:30;5.18;;;4.70;;
12776;SDS011;6452;41.572;23.732;2023-09-19T06:32:58;5.15;;;4.65;;
12776;SDS011;6452;41.572;23.732;2023-09-19T06:35:26;5.03;;;4.65;;
12776;SDS011;6452;41.572;23.732;2023-09-19T06:37:55;6.82;;;4.90;;
12776;SDS011;6452;41.572;23.732;2023-09-19T06:40:23;8.80;;;4.40;;
12776;SDS011;6452;41.572;23.732;2023-09-19T06:42:50;4.90;;;4.35;;
12776;SDS011;6452;41.572;23.732;2023-09-19T06:45:18;4.10;;;3.67;;
12776;SDS011;6452;41.572;23.732;2023-09-19T06:47:44;4.35;;;3.78;;
12776;SDS011;6452;41.572;23.732;2023-09-19T06:50:11;4.68;;;4.35;;
12776;SDS011;6452;41.572;23.732;2023-09-19T06:52:40;6.25;;;4.75;;
12776;SDS011;6452;41.572;23.732;2023-09-19T06:55:07;8.48;;;6.32;;
12776;SDS011;6452;41.572;23.732;2023-09-19T06:57:35;7.63;;;5.47;;
12776;SDS011;6452;41.572;23.732;2023-09-19T07:00:06;5.93;;;5.25;;
12776;SDS011;6452;41.572;23.732;2023-09-19T07:02:41;8.48;;;6.25;;
12776;SDS011;6452;41.572;23.732;2023-09-19T07:05:08;6.10;;;5.47;;
12776;SDS011;6452;41.572;23.732;2023-09-19T07:07:35;8.60;;;5.25;;
12776;SDS011;6452;41.572;23.732;2023-09-19T07:10:02;7.78;;;5.90;;
12776;SDS011;6452;41.572;23.732;2023-09-19T07:12:36;6.35;;;5.45;;
12776;SDS011;6452;41.572;23.732;2023-09-19T07:15:03;5.70;;;5.18;;
12776;SDS011;6452;41.572;23.732;2023-09-19T07:17:31;8.65;;;5.45;;
12776;SDS011;6452;41.572;23.732;2023-09-19T07:20:01;4.97;;;4.13;;
12776;SDS011;6452;41.572;23.732;2023-09-19T07:22:33;5.35;;;4.90;;
12776;SDS011;6452;41.572;23.732;2023-09-19T07:24:59;5.32;;;4.82;;
12776;SDS011;6452;41.572;23.732;2023-09-19T07:27:26;5.88;;;5.25;;
12776;SDS011;6452;41.572;23.732;2023-09-19T07:29:56;5.15;;;4.72;;
12776;SDS011;6452;41.572;23.732;2023-09-19T07:32:24;6.30;;;4.78;;
12776;SDS011;6452;41.572;23.732;2023-09-19T07:34:50;4.63;;;4.10;;
12776;SDS011;6452;41.572;23.732;2023-09-19T07:37:17;6.80;;;4.35;;
12776;SDS011;6452;41.572;23.732;2023-09-19T07:39:43;14.48;;;5.03;;
12776;SDS011;6452;41.572;23.732;2023-09-19T07:42:10;5.38;;;4.97;;
12776;SDS011;6452;41.572;23.732;2023-09-19T07:44:43;7.32;;;5.03;;
12776;SDS011;6452;41.572;23.732;2023-09-19T07:47:13;4.78;;;4.38;;
12776;SDS011;6452;41.572;23.732;2023-09-19T07:49:40;5.55;;;4.30;;
12776;SDS011;6452;41.572;23.732;2023-09-19T07:52:08;4.82;;;4.03;;
12776;SDS011;6452;41.572;23.732;2023-09-19T07:54:35;5.03;;;4.53;;
12776;SDS011;6452;41.572;23.732;2023-09-19T07:57:02;4.90;;;4.45;;
12776;SDS011;6452;41.572;23.732;2023-09-19T07:59:29;5.68;;;4.45;;
12776;SDS011;6452;41.572;23.732;2023-09-19T08:01:56;7.45;;;4.82;;
12776;SDS011;6452;41.572;23.732;2023-09-19T08:04:23;4.68;;;4.28;;
12776;SDS011;6452;41.572;23.732;2023-09-19T08:06:51;5.25;;;4.75;;
12776;SDS011;6452;41.572;23.732;2023-09-19T08:09:17;4.78;;;4.38;;
12776;SDS011;6452;41.572;23.732;2023-09-19T08:11:46;4.65;;;4.25;;
12776;SDS011;6452;41.572;23.732;2023-09-19T08:14:13;5.03;;;4.63;;
12776;SDS011;6452;41.572;23.732;2023-09-19T08:16:43;4.90;;;4.43;;
12776;SDS011;6452;41.572;23.732;2023-09-19T08:19:10;4.70;;;4.30;;
12776;SDS011;6452;41.572;23.732;2023-09-19T08:21:36;7.03;;;4.55;;
12776;SDS011;6452;41.572;23.732;2023-09-19T08:24:03;4.38;;;4.07;;
12776;SDS011;6452;41.572;23.732;2023-09-19T08:26:31;6.72;;;4.28;;
12776;SDS011;6452;41.572;23.732;2023-09-19T08:28:59;5.25;;;4.20;;
12776;SDS011;6452;41.572;23.732;2023-09-19T08:31:31;5.88;;;4.15;;
12776;SDS011;6452;41.572;23.732;2023-09-19T08:33:59;3.80;;;3.50;;
12776;SDS011;6452;41.572;23.732;2023-09-19T08:36:25;4.43;;;3.72;;
12776;SDS011;6452;41.572;23.732;2023-09-19T08:38:52;4.22;;;3.92;;
12776;SDS011;6452;41.572;23.732;2023-09-19T08:41:18;4.55;;;3.97;;
12776;SDS011;6452;41.572;23.732;2023-09-19T08:43:45;4.30;;;3.95;;
12776;SDS011;6452;41.572;23.732;2023-09-19T08:46:16;5.05;;;3.92;;
12776;SDS011;6452;41.572;23.732;2023-09-19T08:51:39;5.72;;;3.85;;
12776;SDS011;6452;41.572;23.732;2023-09-19T08:54:12;5.00;;;4.25;;
12776;SDS011;6452;41.572;23.732;2023-09-19T08:56:52;3.53;;;3.20;;
12776;SDS011;6452;41.572;23.732;2023-09-19T08:59:21;6.65;;;4.00;;
12776;SDS011;6452;41.572;23.732;2023-09-19T09:01:49;4.20;;;3.80;;
12776;SDS011;6452;41.572;23.732;2023-09-19T09:04:19;4.40;;;4.00;;
12776;SDS011;6452;41.572;23.732;2023-09-19T09:06:45;4.40;;;4.00;;
12776;SDS011;6452;41.572;23.732;2023-09-19T09:09:16;3.63;;;3.33;;
12776;SDS011;6452;41.572;23.732;2023-09-19T09:11:43;4.07;;;3.70;;
12776;SDS011;6452;41.572;23.732;2023-09-19T09:14:10;4.03;;;3.65;;
12776;SDS011;6452;41.572;23.732;2023-09-19T09:16:37;4.57;;;4.20;;
12776;SDS011;6452;41.572;23.732;2023-09-19T09:19:05;4.15;;;3.75;;
12776;SDS011;6452;41.572;23.732;2023-09-19T09:21:31;3.45;;;3.25;;
12776;SDS011;6452;41.572;23.732;2023-09-19T09:26:55;4.28;;;3.97;;
12776;SDS011;6452;41.572;23.732;2023-09-19T09:29:42;4.78;;;4.07;;
12776;SDS011;6452;41.572;23.732;2023-09-19T09:32:19;3.55;;;3.35;;
12776;SDS011;6452;41.572;23.732;2023-09-19T09:34:51;3.03;;;2.83;;
12776;SDS011;6452;41.572;23.732;2023-09-19T09:37:23;3.20;;;2.97;;
12776;SDS011;6452;41.572;23.732;2023-09-19T09:42:38;3.78;;;3.00;;
12776;SDS011;6452;41.572;23.732;2023-09-19T09:45:17;3.40;;;3.20;;
12776;SDS011;6452;41.572;23.732;2023-09-19T09:47:44;3.45;;;3.17;;
12776;SDS011;6452;41.572;23.732;2023-09-19T09:50:37;5.63;;;3.15;;
12776;SDS011;6452;41.572;23.732;2023-09-19T09:53:22;3.40;;;3.10;;
12776;SDS011;6452;41.572;23.732;2023-09-19T09:55:57;3.83;;;3.53;;
12776;SDS011;6452;41.572;23.732;2023-09-19T09:58:49;3.60;;;3.40;;
12776;SDS011;6452;41.572;23.732;2023-09-19T10:01:21;3.50;;;3.20;;
12776;SDS011;6452;41.572;23.732;2023-09-19T10:03:57;3.80;;;3.50;;
12776;SDS011;6452;41.572;23.732;2023-09-19T10:06:25;3.25;;;3.13;;
12776;SDS011;6452;41.572;23.732;2023-09-19T10:09:03;3.03;;;2.90;;
12776;SDS011;6452;41.572;23.732;2023-09-19T10:12:00;3.17;;;2.97;;
12776;SDS011;6452;41.572;23.732;2023-09-19T10:14:32;3.38;;;3.13;;
12776;SDS011;6452;41.572;23.732;2023-09-19T10:17:06;4.47;;;3.05;;
12776;SDS011;6452;41.572;23.732;2023-09-19T10:19:42;3.63;;;3.42;;
12776;SDS011;6452;41.572;23.732;2023-09-19T10:22:16;3.35;;;3.05;;
12776;SDS011;6452;41.572;23.732;2023-09-19T10:24:48;3.03;;;2.92;;
12776;SDS011;6452;41.572;23.732;2023-09-19T10:27:19;3.47;;;3.08;;
12776;SDS011;6452;41.572;23.732;2023-09-19T10:29:48;5.03;;;3.38;;
12776;SDS011;6452;41.572;23.732;2023-09-19T10:32:16;3.42;;;3.22;;
12776;SDS011;6452;41.572;23.732;2023-09-19T10:34:46;3.50;;;3.30;;
12776;SDS011;6452;41.572;23.732;2023-09-19T10:37:14;3.10;;;2.90;;
12776;SDS011;6452;41.572;23.732;2023-09-19T10:39:44;3.47;;;3.17;;
12776;SDS011;6452;41.572;23.732;2023-09-19T10:42:14;3.03;;;2.85;;
12776;SDS011;6452;41.572;23.732;2023-09-19T10:44:44;3.70;;;3.40;;
12776;SDS011;6452;41.572;23.732;2023-09-19T10:47:19;5.32;;;3.55;;
12776;SDS011;6452;41.572;23.732;2023-09-19T10:49:48;3.67;;;3.15;;
12776;SDS011;6452;41.572;23.732;2023-09-19T10:52:15;3.30;;;3.05;;
12776;SDS011;6452;41.572;23.732;2023-09-19T10:54:49;3.53;;;3.30;;
12776;SDS011;6452;41.572;23.732;2023-09-19T10:57:20;4.05;;;3.72;;
12776;SDS011;6452;41.572;23.732;2023-09-19T11:00:07;3.80;;;3.25;;
12776;SDS011;6452;41.572;23.732;2023-09-19T11:05:40;4.47;;;3.50;;
12776;SDS011;6452;41.572;23.732;2023-09-19T11:08:08;3.88;;;3.58;;
12776;SDS011;6452;41.572;23.732;2023-09-19T11:10:50;6.55;;;3.70;;
12776;SDS011;6452;41.572;23.732;2023-09-19T11:13:26;3.45;;;3.25;;
12776;SDS011;6452;41.572;23.732;2023-09-19T11:16:06;3.90;;;3.60;;
12776;SDS011;6452;41.572;23.732;2023-09-19T11:26:48;3.40;;;3.20;;
12776;SDS011;6452;41.572;23.732;2023-09-19T11:29:32;4.15;;;3.75;;
12776;SDS011;6452;41.572;23.732;2023-09-19T11:31:58;3.15;;;2.95;;
12776;SDS011;6452;41.572;23.732;2023-09-19T11:40:07;3.40;;;3.20;;
12776;SDS011;6452;41.572;23.732;2023-09-19T11:42:43;3.67;;;3.38;;
12776;SDS011;6452;41.572;23.732;2023-09-19T11:48:06;3.50;;;3.30;;
12776;SDS011;6452;41.572;23.732;2023-09-19T11:50:33;3.72;;;3.53;;
12776;SDS011;6452;41.572;23.732;2023-09-19T11:53:01;3.55;;;3.30;;
12776;SDS011;6452;41.572;23.732;2023-09-19T11:55:31;3.33;;;3.13;;
12776;SDS011;6452;41.572;23.732;2023-09-19T11:57:58;3.40;;;3.20;;
12776;SDS011;6452;41.572;23.732;2023-09-19T12:00:25;3.47;;;3.17;;
12776;SDS011;6452;41.572;23.732;2023-09-19T12:02:53;3.20;;;3.10;;
12776;SDS011;6452;41.572;23.732;2023-09-19T12:05:30;3.72;;;3.50;;
12776;SDS011;6452;41.572;23.732;2023-09-19T12:07:59;3.80;;;3.50;;
12776;SDS011;6452;41.572;23.732;2023-09-19T12:10:25;3.50;;;3.20;;
12776;SDS011;6452;41.572;23.732;2023-09-19T12:12:52;3.67;;;3.38;;
12776;SDS011;6452;41.572;23.732;2023-09-19T12:15:28;3.42;;;3.22;;
12776;SDS011;6452;41.572;23.732;2023-09-19T12:17:59;3.67;;;3.47;;
12776;SDS011;6452;41.572;23.732;2023-09-19T12:20:42;3.88;;;3.53;;
12776;SDS011;6452;41.572;23.732;2023-09-19T12:23:29;3.63;;;3.13;;
12776;SDS011;6452;41.572;23.732;2023-09-19T12:25:55;3.10;;;2.90;;
12776;SDS011;6452;41.572;23.732;2023-09-19T12:28:28;2.95;;;2.85;;
12776;SDS011;6452;41.572;23.732;2023-09-19T12:30:56;3.10;;;2.92;;
12776;SDS011;6452;41.572;23.732;2023-09-19T12:33:23;3.25;;;3.05;;
12776;SDS011;6452;41.572;23.732;2023-09-19T12:35:52;3.38;;;3.17;;
12776;SDS011;6452;41.572;23.732;2023-09-19T12:38:25;3.28;;;3.08;;
12776;SDS011;6452;41.572;23.732;2023-09-19T12:41:01;3.15;;;2.95;;
12776;SDS011;6452;41.572;23.732;2023-09-19T12:43:30;3.28;;;3.08;;
12776;SDS011;6452;41.572;23.732;2023-09-19T12:46:01;3.33;;;3.03;;
12776;SDS011;6452;41.572;23.732;2023-09-19T12:48:28;3.08;;;2.95;;
12776;SDS011;6452;41.572;23.732;2023-09-19T12:51:02;6.55;;;3.63;;
12776;SDS011;6452;41.572;23.732;2023-09-19T12:53:33;3.05;;;2.95;;
12776;SDS011;6452;41.572;23.732;2023-09-19T12:56:05;2.88;;;2.72;;
12776;SDS011;6452;41.572;23.732;2023-09-19T12:58:34;3.47;;;3.17;;
12776;SDS011;6452;41.572;23.732;2023-09-19T13:01:26;3.03;;;2.92;;
12776;SDS011;6452;41.572;23.732;2023-09-19T13:06:40;3.33;;;2.92;;
12776;SDS011;6452;41.572;23.732;2023-09-19T13:09:09;3.20;;;3.00;;
12776;SDS011;6452;41.572;23.732;2023-09-19T13:11:37;3.22;;;3.03;;
12776;SDS011;6452;41.572;23.732;2023-09-19T13:17:06;3.05;;;2.85;;
12776;SDS011;6452;41.572;23.732;2023-09-19T13:19:53;3.50;;;3.20;;
12776;SDS011;6452;41.572;23.732;2023-09-19T13:25:20;3.58;;;3.00;;
12776;SDS011;6452;41.572;23.732;2023-09-19T13:27:48;4.00;;;3.10;;
12776;SDS011;6452;41.572;23.732;2023-09-19T13:30:20;3.30;;;3.10;;
12776;SDS011;6452;41.572;23.732;2023-09-19T13:32:46;3.70;;;3.40;;
12776;SDS011;6452;41.572;23.732;2023-09-19T13:35:17;7.65;;;3.70;;
12776;SDS011;6452;41.572;23.732;2023-09-19T13:37:44;3.42;;;3.17;;
12776;SDS011;6452;41.572;23.732;2023-09-19T13:40:14;3.92;;;3.60;;
12776;SDS011;6452;41.572;23.732;2023-09-19T13:42:41;3.92;;;3.67;;
12776;SDS011;6452;41.572;23.732;2023-09-19T13:45:07;4.00;;;3.70;;
12776;SDS011;6452;41.572;23.732;2023-09-19T13:47:38;3.47;;;3.17;;
12776;SDS011;6452;41.572;23.732;2023-09-19T13:50:05;3.63;;;3.42;;
12776;SDS011;6452;41.572;23.732;2023-09-19T13:52:33;3.78;;;3.47;;
12776;SDS011;6452;41.572;23.732;2023-09-19T13:55:00;3.50;;;3.15;;
12776;SDS011;6452;41.572;23.732;2023-09-19T13:57:26;4.70;;;3.30;;
12776;SDS011;6452;41.572;23.732;2023-09-19T13:59:52;3.50;;;3.20;;
12776;SDS011;6452;41.572;23.732;2023-09-19T14:02:23;3.92;;;3.58;;
12776;SDS011;6452;41.572;23.732;2023-09-19T14:04:50;3.75;;;3.45;;
12776;SDS011;6452;41.572;23.732;2023-09-19T14:07:17;3.90;;;3.40;;
12776;SDS011;6452;41.572;23.732;2023-09-19T14:09:45;3.63;;;3.42;;
12776;SDS011;6452;41.572;23.732;2023-09-19T14:12:11;3.50;;;3.30;;
12776;SDS011;6452;41.572;23.732;2023-09-19T14:14:38;4.05;;;3.25;;
12776;SDS011;6452;41.572;23.732;2023-09-19T14:17:04;3.70;;;3.40;;
12776;SDS011;6452;41.572;23.732;2023-09-19T14:19:32;3.97;;;3.63;;
12776;SDS011;6452;41.572;23.732;2023-09-19T14:22:00;4.30;;;3.88;;
12776;SDS011;6452;41.572;23.732;2023-09-19T14:24:33;4.30;;;4.00;;
12776;SDS011;6452;41.572;23.732;2023-09-19T14:27:00;4.57;;;3.65;;
12776;SDS011;6452;41.572;23.732;2023-09-19T14:29:29;4.30;;;3.95;;
12776;SDS011;6452;41.572;23.732;2023-09-19T14:31:56;3.83;;;3.63;;
12776;SDS011;6452;41.572;23.732;2023-09-19T14:34:23;5.18;;;4.38;;
12776;SDS011;6452;41.572;23.732;2023-09-19T14:36:50;4.30;;;4.00;;
12776;SDS011;6452;41.572;23.732;2023-09-19T14:39:16;4.45;;;4.18;;
12776;SDS011;6452;41.572;23.732;2023-09-19T14:41:45;6.05;;;4.72;;
12776;SDS011;6452;41.572;23.732;2023-09-19T14:44:11;4.72;;;4.43;;
12776;SDS011;6452;41.572;23.732;2023-09-19T14:46:38;4.68;;;4.28;;
12776;SDS011;6452;41.572;23.732;2023-09-19T14:49:05;4.40;;;3.70;;
12776;SDS011;6452;41.572;23.732;2023-09-19T14:51:32;4.40;;;4.05;;
12776;SDS011;6452;41.572;23.732;2023-09-19T14:54:01;5.15;;;4.75;;
12776;SDS011;6452;41.572;23.732;2023-09-19T14:56:27;5.22;;;4.80;;
12776;SDS011;6452;41.572;23.732;2023-09-19T14:58:56;4.85;;;4.45;;
12776;SDS011;6452;41.572;23.732;2023-09-19T15:01:22;4.53;;;4.13;;
12776;SDS011;6452;41.572;23.732;2023-09-19T15:03:49;4.70;;;4.30;;
12776;SDS011;6452;41.572;23.732;2023-09-19T15:06:15;4.43;;;4.13;;
12776;SDS011;6452;41.572;23.732;2023-09-19T15:08:46;4.97;;;4.40;;
12776;SDS011;6452;41.572;23.732;2023-09-19T15:11:13;4.65;;;4.25;;
12776;SDS011;6452;41.572;23.732;2023-09-19T15:13:43;3.88;;;3.67;;
12776;SDS011;6452;41.572;23.732;2023-09-19T15:16:10;4.60;;;4.30;;
12776;SDS011;6452;41.572;23.732;2023-09-19T15:18:37;4.72;;;4.32;;
12776;SDS011;6452;41.572;23.732;2023-09-19T15:21:10;4.38;;;4.03;;
12776;SDS011;6452;41.572;23.732;2023-09-19T15:23:37;4.97;;;4.47;;
12776;SDS011;6452;41.572;23.732;2023-09-19T15:26:05;4.78;;;4.38;;
12776;SDS011;6452;41.572;23.732;2023-09-19T15:28:34;4.63;;;4.22;;
12776;SDS011;6452;41.572;23.732;2023-09-19T15:33:36;4.43;;;4.03;;
12776;SDS011;6452;41.572;23.732;2023-09-19T15:36:04;6.13;;;4.95;;
12776;SDS011;6452;41.572;23.732;2023-09-19T15:41:23;13.30;;;7.75;;
12776;SDS011;6452;41.572;23.732;2023-09-19T15:43:50;7.55;;;6.57;;
12776;SDS011;6452;41.572;23.732;2023-09-19T15:46:15;5.90;;;5.40;;
12776;SDS011;6452;41.572;23.732;2023-09-19T15:48:42;5.40;;;5.00;;
12776;SDS011;6452;41.572;23.732;2023-09-19T15:51:10;5.43;;;4.93;;
12776;SDS011;6452;41.572;23.732;2023-09-19T15:53:46;5.35;;;4.85;;
12776;SDS011;6452;41.572;23.732;2023-09-19T15:56:14;4.78;;;4.47;;
12776;SDS011;6452;41.572;23.732;2023-09-19T15:58:45;4.80;;;4.50;;
12776;SDS011;6452;41.572;23.732;2023-09-19T16:01:13;5.97;;;4.75;;